createdAt,value
2023-01-19T00:16:39.270Z,24.00
2023-01-19T00:36:39.007Z,23.00
2023-01-19T00:56:38.709Z,27.60
2023-01-19T01:16:38.511Z,23.80
2023-01-19T01:36:38.223Z,26.90
2023-01-19T01:56:37.905Z,29.90
2023-01-19T02:16:37.673Z,24.10
2023-01-19T02:36:37.357Z,25.00
2023-01-19T02:56:37.090Z,24.50
2023-01-19T03:16:36.840Z,19.40
2023-01-19T03:36:36.555Z,24.80
2023-01-19T03:56:36.298Z,23.00
2023-01-19T04:16:36.004Z,34.40
2023-01-19T04:36:35.731Z,20.60
2023-01-19T04:56:35.462Z,33.20
2023-01-19T05:16:35.198Z,21.30
2023-01-19T05:36:34.920Z,26.70
2023-01-19T05:56:34.678Z,20.30
2023-01-19T06:16:34.421Z,34.20
2023-01-19T06:36:34.131Z,22.80
2023-01-19T06:56:33.837Z,30.90
2023-01-19T07:16:33.655Z,41.90
2023-01-19T07:36:33.299Z,43.50
2023-01-19T07:56:33.963Z,36.90
2023-01-19T08:16:32.805Z,31.40
2023-01-19T08:36:32.540Z,41.40
2023-01-19T08:56:32.212Z,60.70
2023-01-19T09:16:31.953Z,46.60
2023-01-19T09:36:31.678Z,50.20
2023-01-19T09:56:31.416Z,46.30
2023-01-19T10:16:31.123Z,26.50
2023-01-19T10:36:30.858Z,35.70
2023-01-19T10:56:30.610Z,19.70
2023-01-19T11:16:30.362Z,18.40
2023-01-19T11:36:30.067Z,20.30
2023-01-19T11:56:29.761Z,11.60
2023-01-19T12:16:29.523Z,1.50
2023-01-19T12:36:29.272Z,4.90
2023-01-19T12:56:28.962Z,0.90
2023-01-19T13:16:28.705Z,3.50
2023-01-19T13:36:28.421Z,1.20
2023-01-19T13:56:28.147Z,8.70
2023-01-19T14:16:27.941Z,10.00
2023-01-19T14:36:27.597Z,0.50
2023-01-19T14:56:27.332Z,6.30
2023-01-19T15:16:27.095Z,1.80
2023-01-19T15:36:26.781Z,1.30
2023-01-19T15:56:26.523Z,0.90
2023-01-19T16:16:26.289Z,0.60
2023-01-19T16:36:25.973Z,1.20
2023-01-19T16:56:25.770Z,1.20
2023-01-19T17:16:25.444Z,0.80
2023-01-19T17:36:25.181Z,3.80
2023-01-19T17:56:24.866Z,1.70
2023-01-19T18:16:25.603Z,0.30
2023-01-19T18:36:24.337Z,1.40
2023-01-19T18:56:24.071Z,1.30
2023-01-19T19:16:23.920Z,7.20
2023-01-19T19:36:23.523Z,1.70
2023-01-19T19:56:23.296Z,3.20
2023-01-19T20:16:23.227Z,7.90
2023-01-19T20:36:22.716Z,1.40
2023-01-19T20:56:22.481Z,5.70
2023-01-19T21:16:22.306Z,1.10
2023-01-19T21:36:21.938Z,4.80
2023-01-19T21:56:21.663Z,5.40
2023-01-19T22:16:21.400Z,1.90
2023-01-19T22:36:21.118Z,2.00
2023-01-19T22:56:20.836Z,1.50
2023-01-19T23:16:20.566Z,5.00
2023-01-19T23:36:20.321Z,3.50
2023-01-19T23:56:20.012Z,4.70
